Terminal Aerodrome Forecast
Issued by NWS

Home | Current Version | Previous Version | Text Only | Print | Product List | Glossary On
Versions: 1 2 3 4 5 6 7 8 9 10 11 12 13 14 15 16 17 18
000
FTUS43 KLSX 071739
TAFCPS
TAF
KCPS 071739Z 0718/0818 35010KT 5SM HZ OVC006
      TEMPO 0718/0721 3SM -DZ BR
     FM072100 02010KT 6SM HZ OVC012
      TEMPO 0721/0724 4SM -RA BR OVC008
     FM080000 04008KT 6SM BR OVC015
     FM081200 04008KT 5SM -SHRA BR OVC010=

USA.gov is the U.S. government's official web portal to all federal, state and local government web resources and services.